createdAt,value
2018-04-25T00:01:38.920Z,12.80
2018-04-25T00:04:07.192Z,12.60
2018-04-25T00:06:35.386Z,12.70
2018-04-25T00:09:04.088Z,12.60
2018-04-25T00:11:32.610Z,12.60
2018-04-25T00:14:00.744Z,12.50
2018-04-25T00:16:30.059Z,12.50
2018-04-25T00:18:58.256Z,12.40
2018-04-25T00:21:26.332Z,12.40
2018-04-25T00:23:55.067Z,12.40
2018-04-25T00:26:23.363Z,12.30
2018-04-25T00:28:51.693Z,12.30
2018-04-25T00:31:19.896Z,12.30
2018-04-25T00:33:48.394Z,12.30
2018-04-25T00:36:16.810Z,12.30
2018-04-25T00:38:45.868Z,12.30
2018-04-25T00:41:14.280Z,12.30
2018-04-25T00:43:42.782Z,12.40
2018-04-25T00:46:11.292Z,12.40
2018-04-25T00:48:41.280Z,12.50
2018-04-25T00:51:09.601Z,12.50
2018-04-25T00:53:38.120Z,12.50
2018-04-25T00:56:07.311Z,12.60
2018-04-25T00:58:36.854Z,12.50
2018-04-25T01:01:05.398Z,12.50
2018-04-25T01:03:34.292Z,12.60
2018-04-25T01:06:03.327Z,12.50
2018-04-25T01:08:32.006Z,12.50
2018-04-25T01:11:00.431Z,12.50
2018-04-25T01:13:30.545Z,12.40
2018-04-25T01:15:59.636Z,12.40
2018-04-25T01:18:29.847Z,12.40
2018-04-25T01:20:58.577Z,12.40
2018-04-25T01:23:26.771Z,12.30
2018-04-25T01:26:00.434Z,12.20
2018-04-25T01:28:30.536Z,12.20
2018-04-25T01:30:59.004Z,12.20
2018-04-25T01:33:27.947Z,12.20
2018-04-25T01:35:56.245Z,12.10
2018-04-25T01:38:24.779Z,12.00
2018-04-25T01:40:54.256Z,11.90
2018-04-25T01:43:22.618Z,11.90
2018-04-25T01:45:51.806Z,11.90
2018-04-25T01:48:20.982Z,11.90
2018-04-25T01:50:57.624Z,11.90
2018-04-25T01:53:37.681Z,12.00
2018-04-25T01:56:17.879Z,12.00
2018-04-25T01:58:57.046Z,12.00
2018-04-25T02:01:23.817Z,12.10
2018-04-25T02:03:52.618Z,12.10
2018-04-25T02:06:21.249Z,12.20
2018-04-25T02:08:49.580Z,12.20
2018-04-25T02:11:17.768Z,12.20
2018-04-25T02:13:47.175Z,12.20
2018-04-25T02:16:15.413Z,12.20
2018-04-25T02:18:43.493Z,12.30
2018-04-25T02:21:12.393Z,12.30
2018-04-25T02:23:40.732Z,12.30
2018-04-25T02:26:08.904Z,12.30
2018-04-25T02:28:37.147Z,12.20
2018-04-25T02:31:05.514Z,12.30
2018-04-25T02:33:33.827Z,12.30
2018-04-25T02:36:02.891Z,12.20
2018-04-25T02:38:31.854Z,12.20
2018-04-25T02:41:00.329Z,12.30
2018-04-25T02:43:31.221Z,12.20
2018-04-25T02:45:59.550Z,12.20
2018-04-25T02:48:28.542Z,12.20
2018-04-25T02:50:57.722Z,12.20
2018-04-25T02:53:26.883Z,12.20
2018-04-25T02:55:55.256Z,12.20
2018-04-25T02:58:23.545Z,12.20
2018-04-25T03:00:52.165Z,12.30
2018-04-25T03:03:20.672Z,12.30
2018-04-25T03:05:48.933Z,12.30
2018-04-25T03:08:17.241Z,12.30
2018-04-25T03:10:46.628Z,12.30
2018-04-25T03:13:14.773Z,12.30
2018-04-25T03:15:44.287Z,12.30
2018-04-25T03:18:12.665Z,12.30
2018-04-25T03:20:40.893Z,12.30
2018-04-25T03:23:09.169Z,12.30
2018-04-25T03:25:37.369Z,12.30
2018-04-25T03:28:06.021Z,12.20
2018-04-25T03:30:34.300Z,12.30
2018-04-25T03:33:02.554Z,12.30
2018-04-25T03:35:30.926Z,12.20
2018-04-25T03:37:59.588Z,12.30
2018-04-25T03:40:28.044Z,12.30
2018-04-25T03:42:57.335Z,12.30
2018-04-25T03:45:26.800Z,12.30
2018-04-25T03:47:55.370Z,12.30
2018-04-25T03:50:24.477Z,12.30
2018-04-25T03:52:53.519Z,12.30
2018-04-25T03:55:21.897Z,12.40
2018-04-25T03:57:50.309Z,12.40
2018-04-25T04:00:18.404Z,12.40
2018-04-25T04:02:46.642Z,12.40
2018-04-25T04:05:15.038Z,12.40
2018-04-25T04:07:43.059Z,12.40
2018-04-25T04:10:11.383Z,12.40
2018-04-25T04:12:39.578Z,12.40
2018-04-25T04:15:08.621Z,12.40
2018-04-25T04:17:38.283Z,12.30
2018-04-25T04:20:06.839Z,12.30
2018-04-25T04:22:34.911Z,12.30
2018-04-25T04:25:03.245Z,12.30
2018-04-25T04:27:32.634Z,12.30
2018-04-25T04:30:01.551Z,12.30
2018-04-25T04:32:30.880Z,12.30
2018-04-25T04:34:59.332Z,12.40
2018-04-25T04:37:27.716Z,12.30
2018-04-25T04:39:55.838Z,12.30
2018-04-25T04:42:24.064Z,12.30
2018-04-25T04:44:52.408Z,12.20
2018-04-25T04:47:21.919Z,12.10
2018-04-25T04:49:50.911Z,12.00
2018-04-25T04:52:19.824Z,12.00
2018-04-25T04:54:48.179Z,12.00
2018-04-25T04:57:16.416Z,12.00
2018-04-25T04:59:44.926Z,12.00
2018-04-25T05:02:13.235Z,12.00
2018-04-25T05:04:41.963Z,12.10
2018-04-25T05:07:10.925Z,12.30
2018-04-25T05:09:39.258Z,12.30
2018-04-25T05:12:07.747Z,12.40
2018-04-25T05:14:36.043Z,12.50
2018-04-25T05:17:05.628Z,12.80
2018-04-25T05:19:35.025Z,12.90
2018-04-25T05:22:03.849Z,12.90
2018-04-25T05:24:32.469Z,13.00
2018-04-25T05:27:00.869Z,13.20
2018-04-25T05:29:29.510Z,13.40
2018-04-25T05:31:57.888Z,13.40
2018-04-25T05:34:26.919Z,13.50
2018-04-25T05:36:55.035Z,13.50
2018-04-25T05:39:23.478Z,13.70
2018-04-25T05:41:52.021Z,13.50
2018-04-25T05:44:21.387Z,13.60
2018-04-25T05:46:50.350Z,13.70
2018-04-25T05:49:19.016Z,13.60
2018-04-25T05:51:47.554Z,13.60
2018-04-25T05:54:15.857Z,13.70
2018-04-25T05:56:44.802Z,13.70
2018-04-25T05:59:14.347Z,13.80
2018-04-25T06:01:42.772Z,13.70
2018-04-25T06:04:11.696Z,13.80
2018-04-25T06:06:40.302Z,13.80
2018-04-25T06:09:08.901Z,13.90
2018-04-25T06:11:37.141Z,13.90
2018-04-25T06:14:05.653Z,13.90
2018-04-25T06:16:33.982Z,13.90
2018-04-25T06:19:03.536Z,13.90
2018-04-25T06:21:31.678Z,13.90
2018-04-25T06:24:00.829Z,13.80
2018-04-25T06:26:29.541Z,14.00
2018-04-25T06:28:57.782Z,14.10
2018-04-25T06:31:26.030Z,14.00
2018-04-25T06:33:54.628Z,14.00
2018-04-25T06:36:22.945Z,13.90
2018-04-25T06:38:52.136Z,14.10
2018-04-25T06:41:20.396Z,14.00
2018-04-25T06:43:48.672Z,14.10
2018-04-25T06:46:18.293Z,14.00
2018-04-25T06:48:47.777Z,14.10
2018-04-25T06:51:16.846Z,14.10
2018-04-25T06:53:45.474Z,14.10
2018-04-25T06:56:14.902Z,14.10
2018-04-25T06:58:43.189Z,14.00
2018-04-25T07:01:12.625Z,14.10
2018-04-25T07:03:41.323Z,14.20
2018-04-25T07:06:09.620Z,14.20
2018-04-25T07:08:38.851Z,14.20
2018-04-25T07:11:07.209Z,14.20
2018-04-25T07:13:36.458Z,14.10
2018-04-25T07:16:04.941Z,14.10
2018-04-25T07:18:33.406Z,14.30
2018-04-25T07:21:02.497Z,14.20
2018-04-25T07:23:31.928Z,14.30
2018-04-25T07:26:00.994Z,14.50
2018-04-25T07:28:29.133Z,14.40
2018-04-25T07:30:57.498Z,14.30
2018-04-25T07:33:25.744Z,14.50
2018-04-25T07:35:53.964Z,14.80
2018-04-25T07:38:22.268Z,14.70
2018-04-25T07:41:05.678Z,14.70
2018-04-25T07:43:35.078Z,14.80
2018-04-25T07:46:04.450Z,14.80
2018-04-25T07:48:33.521Z,14.80
2018-04-25T07:51:01.995Z,14.80
2018-04-25T07:53:30.282Z,15.10
2018-04-25T07:55:58.743Z,15.00
2018-04-25T07:58:27.022Z,15.40
2018-04-25T08:00:55.606Z,15.60
2018-04-25T08:03:23.909Z,15.40
2018-04-25T08:05:52.057Z,15.40
2018-04-25T08:08:21.960Z,15.30
2018-04-25T08:10:50.249Z,15.30
2018-04-25T08:15:30.800Z,15.30
2018-04-25T08:18:10.208Z,15.50
2018-04-25T08:20:49.109Z,15.10
2018-04-25T08:23:18.131Z,14.90
2018-04-25T08:25:47.574Z,14.90
2018-04-25T08:28:16.284Z,14.90
2018-04-25T08:30:44.707Z,15.00
2018-04-25T08:33:13.737Z,14.90
2018-04-25T08:35:42.005Z,14.90
2018-04-25T08:38:10.173Z,14.80
2018-04-25T08:40:38.392Z,15.00
2018-04-25T08:43:07.596Z,14.90
2018-04-25T08:45:36.870Z,14.90
2018-04-25T08:48:05.052Z,14.90
2018-04-25T08:50:33.273Z,15.00
2018-04-25T08:53:01.679Z,15.00
2018-04-25T08:55:30.025Z,15.40
2018-04-25T08:57:58.634Z,15.70
2018-04-25T09:00:27.781Z,15.70
2018-04-25T09:02:56.845Z,16.40
2018-04-25T09:05:24.941Z,16.40
2018-04-25T09:07:54.567Z,17.00
2018-04-25T09:10:22.817Z,17.00
2018-04-25T09:12:52.219Z,17.10
2018-04-25T09:15:23.432Z,17.00
2018-04-25T09:17:51.572Z,17.30
2018-04-25T09:20:21.760Z,18.30
2018-04-25T09:22:49.866Z,18.30
2018-04-25T09:25:18.676Z,17.50
2018-04-25T09:27:47.889Z,16.80
2018-04-25T09:30:16.485Z,16.60
2018-04-25T09:32:44.882Z,17.00
2018-04-25T09:35:14.265Z,16.80
2018-04-25T09:37:42.529Z,16.80
2018-04-25T09:40:10.689Z,17.40
2018-04-25T09:42:39.109Z,17.10
2018-04-25T09:45:08.492Z,16.80
2018-04-25T09:47:36.884Z,16.80
2018-04-25T09:50:05.172Z,16.90
2018-04-25T09:52:33.437Z,16.80
2018-04-25T09:55:01.712Z,16.50
2018-04-25T09:57:31.007Z,16.30
2018-04-25T09:59:59.148Z,16.30
2018-04-25T10:02:32.165Z,16.20
2018-04-25T10:05:00.734Z,16.20
2018-04-25T10:07:29.184Z,16.20
2018-04-25T10:09:57.403Z,16.40
2018-04-25T10:12:26.456Z,16.30
2018-04-25T10:14:54.922Z,16.30
2018-04-25T10:17:23.463Z,16.10
2018-04-25T10:19:51.936Z,16.10
2018-04-25T10:22:20.417Z,16.10
2018-04-25T10:24:49.730Z,15.80
2018-04-25T10:27:18.316Z,15.80
2018-04-25T10:29:47.225Z,15.70
2018-04-25T10:32:16.096Z,15.70
2018-04-25T10:34:45.000Z,15.60
2018-04-25T10:37:13.833Z,15.50
2018-04-25T10:39:42.081Z,15.60
2018-04-25T10:42:11.422Z,15.70
2018-04-25T10:44:39.928Z,15.70
2018-04-25T10:47:08.917Z,15.60
2018-04-25T10:49:37.816Z,15.60
2018-04-25T10:52:06.600Z,15.60
2018-04-25T10:54:35.769Z,15.80
2018-04-25T10:57:04.354Z,15.80
2018-04-25T10:59:33.635Z,16.00
2018-04-25T11:02:01.906Z,16.00
2018-04-25T11:04:30.608Z,16.30
2018-04-25T11:06:59.099Z,16.30
2018-04-25T11:09:28.688Z,16.40
2018-04-25T11:11:57.637Z,16.30
2018-04-25T11:14:25.842Z,16.20
2018-04-25T11:16:54.313Z,16.20
2018-04-25T11:19:22.602Z,16.10
2018-04-25T11:21:50.923Z,16.00
2018-04-25T11:24:20.024Z,16.20
2018-04-25T11:26:49.321Z,16.10
2018-04-25T11:29:17.386Z,16.30
2018-04-25T11:31:46.411Z,15.80
2018-04-25T11:34:15.555Z,15.80
2018-04-25T11:36:44.752Z,15.60
2018-04-25T11:39:13.666Z,15.70
2018-04-25T11:41:41.968Z,15.60
2018-04-25T11:44:10.614Z,15.50
2018-04-25T11:46:39.062Z,15.70
2018-04-25T11:49:08.569Z,15.70
2018-04-25T11:51:37.268Z,16.00
2018-04-25T11:54:05.350Z,16.30
2018-04-25T11:56:34.551Z,16.50
2018-04-25T11:59:03.112Z,16.60
2018-04-25T12:01:32.223Z,16.90
2018-04-25T12:04:00.550Z,16.80
2018-04-25T12:06:29.113Z,16.70
2018-04-25T12:08:58.035Z,16.90
2018-04-25T12:11:27.029Z,16.90
2018-04-25T12:13:55.461Z,16.70
2018-04-25T12:16:24.693Z,16.60
2018-04-25T12:18:52.817Z,16.60
2018-04-25T12:21:21.438Z,16.50
2018-04-25T12:23:50.406Z,16.80
2018-04-25T12:26:21.114Z,16.50
2018-04-25T12:28:49.291Z,16.40
2018-04-25T12:31:17.757Z,16.30
2018-04-25T12:33:46.165Z,16.00
2018-04-25T12:36:16.544Z,16.30
2018-04-25T12:38:44.865Z,16.20
2018-04-25T12:41:13.268Z,16.30
2018-04-25T12:43:41.930Z,15.90
2018-04-25T12:46:10.759Z,15.00
2018-04-25T12:48:39.283Z,14.60
2018-04-25T12:51:07.705Z,14.50
2018-04-25T12:53:37.200Z,13.90
2018-04-25T12:56:05.746Z,13.80
2018-04-25T12:58:34.043Z,13.80
2018-04-25T13:01:02.225Z,13.70
2018-04-25T13:03:31.168Z,13.50
2018-04-25T13:06:02.014Z,13.50
2018-04-25T13:08:30.594Z,13.20
2018-04-25T13:11:01.869Z,12.90
2018-04-25T13:13:30.861Z,12.80
2018-04-25T13:15:59.764Z,13.00
2018-04-25T13:18:30.136Z,13.30
2018-04-25T13:20:59.504Z,13.70
2018-04-25T13:23:29.060Z,13.60
2018-04-25T13:25:57.634Z,13.90
2018-04-25T13:28:27.455Z,14.10
2018-04-25T13:30:55.938Z,14.10
2018-04-25T13:33:25.864Z,14.10
2018-04-25T13:35:54.886Z,14.50
2018-04-25T13:38:23.759Z,14.60
2018-04-25T13:40:54.144Z,14.60
2018-04-25T13:43:23.768Z,14.50
2018-04-25T13:45:52.056Z,14.60
2018-04-25T13:48:20.295Z,14.80
2018-04-25T13:50:50.195Z,14.90
2018-04-25T13:53:19.312Z,14.80
2018-04-25T13:55:47.924Z,14.70
2018-04-25T13:58:16.641Z,14.70
2018-04-25T14:00:46.608Z,15.00
2018-04-25T14:03:15.000Z,15.00
2018-04-25T14:05:44.402Z,15.40
2018-04-25T14:08:13.339Z,15.90
2018-04-25T14:10:42.712Z,16.00
2018-04-25T14:13:12.214Z,16.40
2018-04-25T14:15:40.700Z,16.30
2018-04-25T14:18:10.432Z,16.30
2018-04-25T14:20:38.777Z,16.20
2018-04-25T14:23:08.061Z,16.40
2018-04-25T14:25:36.281Z,16.40
2018-04-25T14:28:04.506Z,15.90
2018-04-25T14:30:33.502Z,15.50
2018-04-25T14:33:01.650Z,15.80
2018-04-25T14:35:30.783Z,15.80
2018-04-25T14:37:59.016Z,15.60
2018-04-25T14:40:27.312Z,15.60
2018-04-25T14:42:56.004Z,15.70
2018-04-25T14:45:24.245Z,16.20
2018-04-25T14:47:52.489Z,16.30
2018-04-25T14:50:22.165Z,15.80
2018-04-25T14:52:50.998Z,15.80
2018-04-25T14:55:19.915Z,16.00
2018-04-25T14:57:56.384Z,16.00
2018-04-25T15:00:25.444Z,16.00
2018-04-25T15:02:55.219Z,15.90
2018-04-25T15:05:23.911Z,16.00
2018-04-25T15:07:52.563Z,16.00
2018-04-25T15:10:22.033Z,15.90
2018-04-25T15:12:50.860Z,15.90
2018-04-25T15:15:18.961Z,15.60
2018-04-25T15:17:49.078Z,15.60
2018-04-25T15:20:21.070Z,15.30
2018-04-25T15:22:49.322Z,14.90
2018-04-25T15:25:18.472Z,13.80
2018-04-25T15:27:46.576Z,13.80
2018-04-25T15:30:14.967Z,13.70
2018-04-25T15:32:44.050Z,13.20
2018-04-25T15:35:12.849Z,13.20
2018-04-25T15:37:41.535Z,13.20
2018-04-25T15:40:09.914Z,13.50
2018-04-25T15:42:38.728Z,14.20
2018-04-25T15:45:07.458Z,14.20
2018-04-25T15:47:35.860Z,14.30
2018-04-25T15:50:04.307Z,14.40
2018-04-25T15:52:32.935Z,14.50
2018-04-25T15:55:01.747Z,14.40
2018-04-25T15:57:32.129Z,14.20
2018-04-25T16:00:01.153Z,14.10
2018-04-25T16:02:30.386Z,14.00
2018-04-25T16:04:59.291Z,14.00
2018-04-25T16:07:27.689Z,14.30
2018-04-25T16:09:55.994Z,14.60
2018-04-25T16:12:24.983Z,14.80
2018-04-25T16:14:53.406Z,15.00
2018-04-25T16:17:21.691Z,15.00
2018-04-25T16:19:50.248Z,14.90
2018-04-25T16:22:18.524Z,15.00
2018-04-25T16:24:46.748Z,15.00
2018-04-25T16:27:15.517Z,15.00
2018-04-25T16:29:43.744Z,15.10
2018-04-25T16:32:12.040Z,15.10
2018-04-25T16:34:40.197Z,15.00
2018-04-25T16:37:09.533Z,15.10
2018-04-25T16:39:37.763Z,15.00
2018-04-25T16:42:06.706Z,15.10
2018-04-25T16:44:35.162Z,15.10
2018-04-25T16:47:03.460Z,15.10
2018-04-25T16:49:31.696Z,15.00
2018-04-25T16:52:01.341Z,14.90
2018-04-25T16:54:29.477Z,14.90
2018-04-25T16:56:57.547Z,15.10
2018-04-25T16:59:28.331Z,15.00
2018-04-25T17:01:56.718Z,14.60
2018-04-25T17:04:25.475Z,14.50
2018-04-25T17:06:54.689Z,14.60
2018-04-25T17:09:23.128Z,14.50
2018-04-25T17:11:51.605Z,14.40
2018-04-25T17:14:20.092Z,14.40
2018-04-25T17:16:48.268Z,14.50
2018-04-25T17:19:16.626Z,14.50
2018-04-25T17:21:45.484Z,14.30
2018-04-25T17:24:14.864Z,14.40
2018-04-25T17:26:43.302Z,14.30
2018-04-25T17:29:11.750Z,14.50
2018-04-25T17:31:39.920Z,14.30
2018-04-25T17:34:08.450Z,14.30
2018-04-25T17:36:36.685Z,14.50
2018-04-25T17:39:06.809Z,14.40
2018-04-25T17:41:35.664Z,14.40
2018-04-25T17:44:05.053Z,14.30
2018-04-25T17:46:33.396Z,14.30
2018-04-25T17:49:02.264Z,14.50
2018-04-25T17:51:31.106Z,14.30
2018-04-25T17:53:59.976Z,14.30
2018-04-25T17:56:28.561Z,14.20
2018-04-25T17:58:57.532Z,14.30
2018-04-25T18:01:26.615Z,14.20
2018-04-25T18:03:55.836Z,14.20
2018-04-25T18:06:24.146Z,14.20
2018-04-25T18:08:52.422Z,14.20
2018-04-25T18:11:20.811Z,14.20
2018-04-25T18:13:49.187Z,14.20
2018-04-25T18:16:17.407Z,14.10
2018-04-25T18:18:46.144Z,14.10
2018-04-25T18:21:14.533Z,14.10
2018-04-25T18:23:42.698Z,14.10
2018-04-25T18:26:11.174Z,14.10
2018-04-25T18:28:41.132Z,14.10
2018-04-25T18:31:10.100Z,14.00
2018-04-25T18:33:38.476Z,13.90
2018-04-25T18:36:07.637Z,14.00
2018-04-25T18:38:36.293Z,14.00
2018-04-25T18:41:04.513Z,14.00
2018-04-25T18:43:34.197Z,13.80
2018-04-25T18:46:02.383Z,13.80
2018-04-25T18:48:37.032Z,13.60
2018-04-25T18:51:06.006Z,13.60
2018-04-25T18:53:34.607Z,13.50
2018-04-25T18:56:03.388Z,13.50
2018-04-25T18:58:31.957Z,13.50
2018-04-25T19:01:02.393Z,13.30
2018-04-25T19:03:30.876Z,13.20
2018-04-25T19:05:59.737Z,13.00
2018-04-25T19:08:28.881Z,12.90
2018-04-25T19:10:57.214Z,12.80
2018-04-25T19:13:25.845Z,12.70
2018-04-25T19:15:54.165Z,12.60
2018-04-25T19:18:24.166Z,12.50
2018-04-25T19:20:52.380Z,12.50
2018-04-25T19:23:21.088Z,12.60
2018-04-25T19:25:49.786Z,12.50
2018-04-25T19:28:18.090Z,12.50
2018-04-25T19:30:46.372Z,12.50
2018-04-25T19:33:14.600Z,12.50
2018-04-25T19:35:43.310Z,12.40
2018-04-25T19:38:12.374Z,12.50
2018-04-25T19:40:41.208Z,12.40
2018-04-25T19:43:09.365Z,12.40
2018-04-25T19:45:38.433Z,12.50
2018-04-25T19:48:09.873Z,12.40
2018-04-25T19:50:38.151Z,12.40
2018-04-25T19:53:07.563Z,12.40
2018-04-25T19:55:36.120Z,12.40
2018-04-25T19:58:04.418Z,12.40
2018-04-25T20:00:32.547Z,12.40
2018-04-25T20:03:01.030Z,12.40
2018-04-25T20:05:29.617Z,12.40
2018-04-25T20:07:58.094Z,12.40
2018-04-25T20:10:26.621Z,12.40
2018-04-25T20:12:57.604Z,12.30
2018-04-25T20:15:28.483Z,12.30
2018-04-25T20:17:57.995Z,12.30
2018-04-25T20:20:26.978Z,12.20
2018-04-25T20:22:55.348Z,12.30
2018-04-25T20:25:23.552Z,12.30
2018-04-25T20:27:51.925Z,12.30
2018-04-25T20:30:20.999Z,12.30
2018-04-25T20:32:49.269Z,12.30
2018-04-25T20:35:17.591Z,12.20
2018-04-25T20:37:47.541Z,12.30
2018-04-25T20:40:16.461Z,12.20
2018-04-25T20:42:44.818Z,12.20
2018-04-25T20:45:13.306Z,12.10
2018-04-25T20:47:42.456Z,12.20
2018-04-25T20:50:12.304Z,12.20
2018-04-25T20:52:41.034Z,12.20
2018-04-25T20:55:09.116Z,12.20
2018-04-25T20:57:38.294Z,12.00
2018-04-25T21:00:06.811Z,12.00
2018-04-25T21:02:36.051Z,11.70
2018-04-25T21:05:04.115Z,11.70
2018-04-25T21:07:32.378Z,11.70
2018-04-25T21:10:00.576Z,11.70
2018-04-25T21:12:29.089Z,11.70
2018-04-25T21:14:57.489Z,11.60
2018-04-25T21:17:25.925Z,11.70
2018-04-25T21:19:54.518Z,11.60
2018-04-25T21:22:23.060Z,11.50
2018-04-25T21:24:52.533Z,11.60
2018-04-25T21:27:21.610Z,11.50
2018-04-25T21:29:50.765Z,11.50
2018-04-25T21:32:19.734Z,11.40
2018-04-25T21:34:48.051Z,11.40
2018-04-25T21:37:16.448Z,11.40
2018-04-25T21:39:45.187Z,11.40
2018-04-25T21:42:14.224Z,11.40
2018-04-25T21:44:43.196Z,11.30
2018-04-25T21:47:11.264Z,11.30
2018-04-25T21:49:39.380Z,11.20
2018-04-25T21:52:08.741Z,11.20
2018-04-25T21:54:37.696Z,11.20
2018-04-25T21:57:06.123Z,11.20
2018-04-25T21:59:34.408Z,11.10
2018-04-25T22:02:02.679Z,11.10
2018-04-25T22:04:31.815Z,11.20
2018-04-25T22:07:00.396Z,11.20
2018-04-25T22:09:30.423Z,11.30
2018-04-25T22:11:59.418Z,11.30
2018-04-25T22:14:27.575Z,11.30
2018-04-25T22:16:57.762Z,11.40
2018-04-25T22:19:25.987Z,11.30
2018-04-25T22:21:55.727Z,11.40
2018-04-25T22:24:24.260Z,11.40
2018-04-25T22:26:52.821Z,11.40
2018-04-25T22:29:21.309Z,11.30
2018-04-25T22:31:50.425Z,11.20
2018-04-25T22:34:18.591Z,11.20
2018-04-25T22:36:47.721Z,11.30
2018-04-25T22:39:15.728Z,11.30
2018-04-25T22:41:44.117Z,11.30
2018-04-25T22:44:13.301Z,11.30
2018-04-25T22:46:41.509Z,11.30
2018-04-25T22:49:09.754Z,11.20
2018-04-25T22:51:38.196Z,11.10
2018-04-25T22:54:06.534Z,11.10
2018-04-25T22:56:36.354Z,11.20
2018-04-25T22:59:04.597Z,11.20
2018-04-25T23:01:33.898Z,11.20
2018-04-25T23:04:02.262Z,11.20
2018-04-25T23:06:30.554Z,11.20
2018-04-25T23:08:58.904Z,11.10
2018-04-25T23:11:27.010Z,11.20
2018-04-25T23:13:56.198Z,11.20
2018-04-25T23:16:25.452Z,11.20
2018-04-25T23:18:53.982Z,11.20
2018-04-25T23:21:23.107Z,11.20
2018-04-25T23:23:51.352Z,11.20
2018-04-25T23:26:20.499Z,11.20
2018-04-25T23:28:48.513Z,11.20
2018-04-25T23:31:17.006Z,11.10
2018-04-25T23:33:46.329Z,11.10
2018-04-25T23:36:14.465Z,11.10
2018-04-25T23:38:44.887Z,11.10
2018-04-25T23:41:13.181Z,11.10
2018-04-25T23:43:42.139Z,10.90
2018-04-25T23:46:10.387Z,10.90
2018-04-25T23:48:38.785Z,10.90
2018-04-25T23:51:08.153Z,10.90
2018-04-25T23:53:36.557Z,10.80
2018-04-25T23:56:04.754Z,10.80
2018-04-25T23:58:33.760Z,10.70
